createdAt,value
2022-12-01T00:00:22.583Z,26.35
2022-12-01T00:03:25.628Z,26.52
2022-12-01T00:06:27.969Z,30.90
2022-12-01T00:09:49.409Z,23.83
2022-12-01T00:13:00.837Z,22.93
2022-12-01T00:16:11.905Z,22.45
2022-12-01T00:19:14.219Z,22.87
2022-12-01T00:22:16.783Z,23.12
2022-12-01T00:25:20.432Z,18.52
2022-12-01T00:28:22.976Z,20.27
2022-12-01T00:31:27.102Z,27.48
2022-12-01T00:34:29.877Z,20.52
2022-12-01T00:37:34.265Z,22.15
2022-12-01T00:40:36.787Z,22.20
2022-12-01T00:43:39.963Z,21.40
2022-12-01T00:46:42.708Z,21.05
2022-12-01T00:49:48.120Z,24.50
2022-12-01T00:52:50.974Z,20.20
2022-12-01T00:55:56.203Z,21.87
2022-12-01T00:58:58.827Z,22.23
2022-12-01T01:02:01.403Z,24.30
2022-12-01T01:05:04.339Z,23.48
2022-12-01T01:08:09.303Z,22.48
2022-12-01T01:11:12.316Z,21.87
2022-12-01T01:14:15.322Z,24.13
2022-12-01T01:17:17.937Z,25.17
2022-12-01T01:20:20.855Z,26.05
2022-12-01T01:23:23.672Z,23.45
2022-12-01T01:26:29.391Z,24.02
2022-12-01T01:29:32.742Z,24.73
2022-12-01T01:32:35.238Z,22.83
2022-12-01T01:35:38.081Z,21.00
2022-12-01T01:38:40.389Z,22.58
2022-12-01T01:41:43.075Z,19.62
2022-12-01T01:44:57.213Z,22.57
2022-12-01T01:48:00.795Z,25.92
2022-12-01T01:51:03.821Z,19.58
2022-12-01T01:54:10.195Z,21.80
2022-12-01T01:57:17.017Z,22.35
2022-12-01T02:00:21.660Z,21.37
2022-12-01T02:03:25.140Z,26.08
2022-12-01T02:06:27.870Z,26.70
2022-12-01T02:09:30.193Z,28.42
2022-12-01T02:12:41.581Z,24.23
2022-12-01T02:15:52.654Z,23.80
2022-12-01T02:19:33.757Z,22.65
2022-12-01T02:23:00.289Z,24.33
2022-12-01T02:26:11.584Z,23.60
2022-12-01T02:29:38.424Z,22.62
2022-12-01T02:32:44.011Z,21.20
2022-12-01T02:35:55.360Z,20.27
2022-12-01T02:39:09.858Z,21.02
2022-12-01T02:42:36.105Z,23.00
2022-12-01T02:45:49.484Z,25.75
2022-12-01T02:48:54.933Z,20.50
2022-12-01T02:51:58.925Z,21.35
2022-12-01T02:55:01.181Z,27.20
2022-12-01T02:58:14.224Z,22.42
2022-12-01T03:01:46.043Z,22.92
2022-12-01T03:05:06.860Z,18.77
2022-12-01T03:08:46.981Z,24.10
2022-12-01T03:12:21.984Z,23.52
2022-12-01T03:15:47.715Z,21.95
2022-12-01T03:19:25.629Z,22.62
2022-12-01T03:22:41.713Z,23.77
2022-12-01T03:25:48.645Z,21.85
2022-12-01T03:28:56.628Z,21.00
2022-12-01T03:32:06.264Z,23.80
2022-12-01T03:35:16.177Z,20.08
2022-12-01T03:38:24.274Z,21.13
2022-12-01T03:41:35.351Z,19.80
2022-12-01T03:44:51.905Z,26.60
2022-12-01T03:47:54.381Z,23.12
2022-12-01T03:51:11.625Z,20.50
2022-12-01T03:54:23.144Z,19.70
2022-12-01T03:57:34.838Z,24.02
2022-12-01T04:00:37.997Z,25.10
2022-12-01T04:03:40.666Z,20.25
2022-12-01T04:06:47.396Z,19.58
2022-12-01T04:09:50.172Z,19.13
2022-12-01T04:12:58.961Z,19.35
2022-12-01T04:16:01.670Z,21.15
2022-12-01T04:19:04.069Z,18.77
2022-12-01T04:22:06.690Z,21.17
2022-12-01T04:25:10.185Z,17.80
2022-12-01T04:28:12.696Z,21.42
2022-12-01T04:31:15.009Z,19.83
2022-12-01T04:34:17.621Z,25.35
2022-12-01T04:37:20.425Z,19.73
2022-12-01T04:40:22.954Z,19.17
2022-12-01T04:43:25.242Z,20.12
2022-12-01T04:46:27.968Z,22.95
2022-12-01T04:49:30.956Z,18.77
2022-12-01T04:52:37.318Z,19.48
2022-12-01T04:55:39.639Z,21.50
2022-12-01T04:58:43.315Z,20.27
2022-12-01T05:01:48.159Z,21.75
2022-12-01T05:04:50.916Z,23.80
2022-12-01T05:07:53.192Z,22.10
2022-12-01T05:10:56.715Z,20.07
2022-12-01T05:13:59.679Z,19.58
2022-12-01T05:17:02.442Z,22.25
2022-12-01T05:20:23.862Z,21.15
2022-12-01T05:23:29.022Z,22.23
2022-12-01T05:26:31.282Z,22.50
2022-12-01T05:29:34.242Z,23.12
2022-12-01T05:32:36.645Z,21.67
2022-12-01T05:35:39.249Z,20.73
2022-12-01T05:38:41.577Z,22.92
2022-12-01T05:41:44.107Z,26.40
2022-12-01T05:44:46.331Z,24.23
2022-12-01T05:47:48.828Z,24.20
2022-12-01T05:50:51.556Z,21.08
2022-12-01T05:53:54.110Z,26.10
2022-12-01T05:56:56.429Z,27.33
2022-12-01T05:59:59.302Z,30.73
2022-12-01T06:03:02.214Z,28.55
2022-12-01T06:06:04.882Z,32.60
2022-12-01T06:09:08.293Z,30.70
2022-12-01T06:12:10.854Z,32.60
2022-12-01T06:15:14.127Z,30.27
2022-12-01T06:18:16.703Z,31.70
2022-12-01T06:21:19.156Z,30.98
2022-12-01T06:24:21.782Z,38.20
2022-12-01T06:27:24.321Z,33.30
2022-12-01T06:30:26.949Z,30.12
2022-12-01T06:33:29.243Z,33.72
2022-12-01T06:36:31.773Z,33.45
2022-12-01T06:39:34.015Z,37.60
2022-12-01T06:42:36.550Z,32.47
2022-12-01T06:45:38.865Z,31.27
2022-12-01T06:48:41.583Z,34.83
2022-12-01T06:51:43.875Z,31.30
2022-12-01T06:54:46.519Z,33.67
2022-12-01T06:57:49.205Z,35.50
2022-12-01T07:00:52.509Z,31.55
2022-12-01T07:03:55.159Z,33.72
2022-12-01T07:06:57.736Z,29.52
2022-12-01T07:09:59.991Z,28.08
2022-12-01T07:13:02.586Z,35.27
2022-12-01T07:16:06.395Z,36.00
2022-12-01T07:19:09.606Z,32.50
2022-12-01T07:22:11.874Z,29.45
2022-12-01T07:25:14.697Z,30.05
2022-12-01T07:28:16.913Z,35.73
2022-12-01T07:31:20.730Z,31.08
2022-12-01T07:34:22.993Z,32.92
2022-12-01T07:37:25.554Z,31.20
2022-12-01T07:40:27.794Z,33.47
2022-12-01T07:43:32.079Z,31.27
2022-12-01T07:46:34.562Z,32.20
2022-12-01T07:49:38.132Z,29.25
2022-12-01T07:52:40.383Z,35.17
2022-12-01T07:55:48.703Z,34.13
2022-12-01T07:58:51.482Z,28.27
2022-12-01T08:01:54.182Z,29.73
2022-12-01T08:04:56.787Z,26.52
2022-12-01T08:07:59.262Z,32.60
2022-12-01T08:11:04.317Z,28.27
2022-12-01T08:14:06.776Z,31.20
2022-12-01T08:17:09.616Z,32.38
2022-12-01T08:20:12.476Z,33.30
2022-12-01T08:23:15.028Z,33.88
2022-12-01T08:26:19.882Z,28.58
2022-12-01T08:29:22.407Z,38.20
2022-12-01T08:32:24.802Z,31.80
2022-12-01T08:35:27.402Z,31.95
2022-12-01T08:38:29.795Z,35.08
2022-12-01T08:41:32.504Z,28.83
2022-12-01T08:44:34.992Z,33.10
2022-12-01T08:47:37.634Z,30.27
2022-12-01T08:50:39.960Z,32.88
2022-12-01T08:53:46.039Z,34.60
2022-12-01T08:56:48.494Z,31.60
2022-12-01T08:59:51.543Z,32.77
2022-12-01T09:02:54.043Z,34.22
2022-12-01T09:06:02.396Z,36.13
2022-12-01T09:09:05.255Z,31.00
2022-12-01T09:12:09.114Z,32.42
2022-12-01T09:15:11.480Z,39.07
2022-12-01T09:18:13.979Z,30.83
2022-12-01T09:21:25.409Z,33.72
2022-12-01T09:24:28.347Z,33.33
2022-12-01T09:27:30.616Z,52.53
2022-12-01T09:30:35.459Z,77.13
2022-12-01T09:33:38.734Z,33.58
2022-12-01T09:36:41.685Z,31.87
2022-12-01T09:39:46.357Z,28.70
2022-12-01T09:42:49.017Z,31.62
2022-12-01T09:46:02.291Z,26.63
2022-12-01T09:49:12.258Z,29.73
2022-12-01T09:52:18.076Z,28.48
2022-12-01T09:55:23.435Z,25.62
2022-12-01T09:58:30.866Z,28.08
2022-12-01T10:01:39.103Z,23.60
2022-12-01T10:04:46.262Z,24.92
2022-12-01T10:08:05.161Z,20.33
2022-12-01T10:11:40.307Z,18.77
2022-12-01T10:14:48.620Z,22.05
2022-12-01T10:18:01.833Z,18.53
2022-12-01T10:21:04.059Z,21.65
2022-12-01T10:24:16.946Z,20.48
2022-12-01T10:27:37.435Z,20.58
2022-12-01T10:30:50.121Z,22.37
2022-12-01T10:34:00.664Z,18.27
2022-12-01T11:24:42.296Z,21.65
2022-12-01T11:27:54.184Z,22.98
2022-12-01T11:31:03.778Z,26.60
2022-12-01T11:34:28.535Z,22.93
2022-12-01T11:38:13.271Z,26.33
2022-12-01T11:41:28.363Z,21.98
2022-12-01T11:44:50.978Z,26.30
2022-12-01T11:48:28.001Z,27.00
2022-12-01T11:51:37.530Z,22.80
2022-12-01T11:55:14.359Z,23.95
2022-12-01T11:58:16.685Z,21.08
2022-12-01T12:01:44.208Z,22.48
2022-12-01T12:04:55.780Z,24.27
2022-12-01T12:08:30.874Z,23.90
2022-12-01T12:11:42.455Z,31.20
2022-12-01T12:14:48.511Z,20.45
2022-12-01T12:18:09.372Z,21.73
2022-12-01T12:21:20.660Z,21.70
2022-12-01T12:25:04.849Z,25.70
2022-12-01T12:28:33.357Z,22.15
2022-12-01T12:31:45.504Z,25.27
2022-12-01T12:35:02.861Z,21.70
2022-12-01T12:38:11.096Z,21.02
2022-12-01T12:41:35.515Z,19.57
2022-12-01T12:44:49.648Z,19.58
2022-12-01T12:48:23.414Z,18.02
2022-12-01T12:51:39.510Z,23.08
2022-12-01T12:54:57.334Z,21.58
2022-12-01T12:58:16.804Z,19.73
2022-12-01T13:01:24.767Z,20.08
2022-12-01T13:04:52.247Z,21.95
2022-12-01T13:08:09.170Z,20.50
2022-12-01T13:11:36.128Z,19.92
2022-12-01T13:14:43.819Z,19.50
2022-12-01T13:18:18.507Z,22.80
2022-12-01T13:21:22.488Z,18.08
2022-12-01T13:24:29.424Z,17.90
2022-12-01T13:27:38.437Z,19.90
2022-12-01T13:30:41.004Z,18.13
2022-12-01T13:33:57.338Z,18.80
2022-12-01T13:36:59.991Z,19.48
2022-12-01T13:40:24.640Z,26.00
2022-12-01T13:43:27.192Z,21.90
2022-12-01T13:47:02.608Z,20.50
2022-12-01T13:50:39.094Z,19.33
2022-12-01T13:54:28.550Z,18.23
2022-12-01T13:57:33.419Z,18.55
2022-12-01T14:00:36.224Z,35.53
2022-12-01T14:03:40.631Z,20.80
2022-12-01T14:06:52.544Z,19.77
2022-12-01T14:10:06.322Z,21.27
2022-12-01T14:13:19.481Z,20.05
2022-12-01T14:16:22.779Z,23.00
2022-12-01T14:19:43.598Z,20.60
2022-12-01T14:23:13.827Z,18.45
2022-12-01T14:26:19.549Z,20.17
2022-12-01T14:29:29.368Z,17.08
2022-12-01T14:32:31.676Z,21.85
2022-12-01T14:35:34.279Z,19.70
2022-12-01T14:38:36.942Z,20.65
2022-12-01T14:41:45.219Z,18.25
2022-12-01T14:44:51.545Z,26.27
2022-12-01T14:48:02.350Z,18.80
2022-12-01T14:51:30.000Z,19.57
2022-12-01T14:54:49.646Z,17.73
2022-12-01T14:58:06.362Z,16.55
2022-12-01T15:01:12.523Z,16.17
2022-12-01T15:04:15.517Z,20.83
2022-12-01T15:07:23.122Z,20.67
2022-12-01T15:10:29.220Z,16.30
2022-12-01T15:13:41.098Z,20.27
2022-12-01T15:16:43.578Z,19.35
2022-12-01T15:19:46.297Z,21.50
2022-12-01T15:22:49.445Z,16.90
2022-12-01T15:25:52.178Z,16.42
2022-12-01T15:29:06.423Z,18.52
2022-12-01T15:32:15.637Z,15.65
2022-12-01T15:35:23.108Z,16.50
2022-12-01T15:38:32.573Z,17.87
2022-12-01T15:41:40.215Z,15.65
2022-12-01T15:44:42.903Z,16.73
2022-12-01T15:47:48.157Z,17.10
2022-12-01T15:51:05.826Z,18.92
2022-12-01T15:54:19.468Z,18.17
2022-12-01T15:57:22.518Z,16.00
2022-12-01T16:00:25.457Z,23.12
2022-12-01T16:03:28.675Z,17.17
2022-12-01T16:06:34.776Z,17.77
2022-12-01T16:09:40.419Z,16.47
2022-12-01T16:12:42.726Z,17.62
2022-12-01T16:15:45.357Z,21.80
2022-12-01T16:18:56.374Z,19.95
2022-12-01T16:22:11.145Z,17.90
2022-12-01T16:25:33.461Z,19.43
2022-12-01T16:28:36.210Z,22.30
2022-12-01T16:31:58.594Z,23.73
2022-12-01T16:35:01.942Z,22.98
2022-12-01T16:38:22.670Z,21.42
2022-12-01T16:41:38.055Z,21.43
2022-12-01T16:44:42.736Z,21.17
2022-12-01T16:47:48.183Z,20.30
2022-12-01T16:50:52.051Z,22.27
2022-12-01T16:53:55.810Z,19.25
2022-12-01T16:56:58.071Z,21.17
2022-12-01T17:00:00.600Z,20.75
2022-12-01T17:03:04.439Z,23.42
2022-12-01T17:06:07.542Z,22.40
2022-12-01T17:09:09.800Z,22.17
2022-12-01T17:12:12.366Z,26.23
2022-12-01T17:15:15.622Z,21.73
2022-12-01T17:18:19.459Z,22.45
2022-12-01T17:21:22.225Z,25.42
2022-12-01T17:24:25.997Z,24.50
2022-12-01T17:27:29.735Z,21.03
2022-12-01T17:30:32.264Z,21.33
2022-12-01T17:33:36.291Z,21.42
2022-12-01T17:36:38.834Z,20.75
2022-12-01T17:39:41.179Z,29.87
2022-12-01T17:42:50.001Z,32.27
2022-12-01T17:45:52.813Z,26.50
2022-12-01T17:48:55.524Z,29.00
2022-12-01T17:51:57.842Z,27.62
2022-12-01T17:55:00.489Z,28.40
2022-12-01T17:58:03.847Z,28.90
2022-12-01T18:01:11.748Z,32.28
2022-12-01T18:04:15.921Z,27.92
2022-12-01T18:07:18.277Z,31.30
2022-12-01T18:10:21.351Z,30.98
2022-12-01T18:13:23.716Z,31.20
2022-12-01T18:16:29.456Z,26.33
2022-12-01T18:19:31.846Z,35.13
2022-12-01T18:22:34.440Z,27.40
2022-12-01T18:25:37.978Z,34.92
2022-12-01T18:28:40.516Z,28.40
2022-12-01T18:31:43.671Z,32.72
2022-12-01T18:34:46.594Z,30.00
2022-12-01T18:37:48.877Z,31.95
2022-12-01T18:40:51.383Z,25.95
2022-12-01T18:43:54.185Z,26.37
2022-12-01T18:46:57.842Z,29.08
2022-12-01T18:50:00.150Z,30.73
2022-12-01T18:53:02.714Z,36.00
2022-12-01T18:56:10.280Z,36.45
2022-12-01T18:59:16.863Z,36.30
2022-12-01T19:02:19.908Z,33.85
2022-12-01T19:05:23.216Z,35.08
2022-12-01T19:08:25.459Z,31.25
2022-12-01T19:11:29.022Z,29.12
2022-12-01T19:14:31.320Z,31.73
2022-12-01T19:17:34.146Z,35.72
2022-12-01T19:20:37.969Z,39.63
2022-12-01T19:23:40.756Z,35.40
2022-12-01T19:26:43.122Z,29.85
2022-12-01T19:29:45.933Z,36.90
2022-12-01T19:32:48.545Z,33.38
2022-12-01T19:35:51.065Z,41.60
2022-12-01T19:38:57.487Z,37.40
2022-12-01T19:42:00.274Z,32.78
2022-12-01T19:45:02.714Z,33.87
2022-12-01T19:48:06.061Z,33.72
2022-12-01T19:51:26.614Z,37.17
2022-12-01T19:54:30.425Z,36.72
2022-12-01T19:57:32.749Z,33.00
2022-12-01T20:00:35.368Z,34.77
2022-12-01T20:03:40.741Z,34.08
2022-12-01T20:06:43.203Z,32.78
2022-12-01T20:09:49.891Z,34.05
2022-12-01T20:12:52.781Z,36.20
2022-12-01T20:16:01.547Z,34.37
2022-12-01T20:19:06.229Z,33.08
2022-12-01T20:22:08.764Z,31.83
2022-12-01T20:25:11.095Z,30.85
2022-12-01T20:28:13.627Z,33.10
2022-12-01T20:31:21.119Z,32.13
2022-12-01T20:34:31.413Z,39.42
2022-12-01T20:37:33.727Z,41.25
2022-12-01T20:40:36.323Z,37.38
2022-12-01T20:43:38.592Z,32.60
2022-12-01T20:46:41.177Z,34.70
2022-12-01T20:49:43.566Z,37.47
2022-12-01T20:52:46.075Z,39.58
2022-12-01T20:55:49.255Z,45.15
2022-12-01T20:58:52.851Z,42.70
2022-12-01T21:01:55.227Z,38.53
2022-12-01T21:04:59.376Z,39.85
2022-12-01T21:08:02.500Z,39.28
2022-12-01T21:11:07.855Z,37.03
2022-12-01T21:14:32.514Z,37.60
2022-12-01T21:17:43.689Z,39.57
2022-12-01T21:20:48.811Z,39.30
2022-12-01T21:24:21.598Z,34.60
2022-12-01T21:27:25.055Z,40.30
2022-12-01T21:30:29.829Z,41.83
2022-12-01T21:33:34.513Z,35.90
2022-12-01T21:36:37.126Z,40.10
2022-12-01T21:39:39.421Z,37.85
2022-12-01T21:42:41.927Z,39.25
2022-12-01T21:45:44.274Z,37.17
2022-12-01T21:48:47.366Z,43.20
2022-12-01T21:51:51.931Z,42.58
2022-12-01T21:54:54.806Z,40.20
2022-12-01T21:57:57.114Z,41.95
2022-12-01T22:01:00.519Z,38.17
2022-12-01T22:04:12.887Z,44.37
2022-12-01T22:07:15.359Z,46.08
2022-12-01T22:10:52.123Z,37.42
2022-12-01T22:14:12.918Z,42.50
2022-12-01T22:17:20.544Z,42.90
2022-12-01T22:20:22.987Z,45.50
2022-12-01T22:23:33.855Z,36.45
2022-12-01T22:26:38.136Z,41.37
2022-12-01T22:29:44.460Z,40.55
2022-12-01T22:32:58.282Z,44.78
2022-12-01T22:36:01.149Z,42.40
2022-12-01T22:39:22.870Z,44.28
2022-12-01T22:42:35.513Z,43.03
2022-12-01T22:45:38.594Z,42.47
2022-12-01T22:48:45.025Z,39.47
2022-12-01T22:51:50.182Z,47.00
2022-12-01T22:54:52.856Z,43.50
2022-12-01T22:57:55.610Z,44.10
2022-12-01T23:01:07.750Z,42.17
2022-12-01T23:04:19.265Z,38.85
2022-12-01T23:07:35.198Z,31.47
2022-12-01T23:10:39.851Z,33.60
2022-12-01T23:13:42.315Z,41.05
2022-12-01T23:16:44.646Z,36.33
2022-12-01T23:19:48.990Z,35.28
2022-12-01T23:22:56.203Z,41.27
2022-12-01T23:26:01.296Z,36.78
2022-12-01T23:29:03.533Z,33.05
2022-12-01T23:32:06.140Z,36.60
2022-12-01T23:35:16.164Z,28.95
2022-12-01T23:38:29.689Z,31.13
2022-12-01T23:41:33.380Z,31.35
2022-12-01T23:44:40.861Z,32.28
2022-12-01T23:47:43.211Z,35.08
2022-12-01T23:50:47.497Z,32.67
2022-12-01T23:53:52.091Z,35.13
2022-12-01T23:56:58.771Z,32.72
